Bookmark and Share
Track history (hours):
 

Alsace

Last reported at 2014-Apr-23 08:33 UTC. Time now 2014-Apr-23 19:22 UTC.
Position N 48°41' E 007°55'.

Length 178 m.

Type: Ship. MMSI: 244660556.

NotesDate/timePositionNaut miles runAvg speedWind from/ knotsBaromVisibWave heightAir tempDewpointWater temp
2014-Apr-23 08:33N 48°41' E 007°55'5 4.8
2014-Apr-23 07:25N 48°46' E 007°59'7 6.9
2014-Apr-23 06:29N 48°50' E 008°07'2 2.5
2014-Apr-23 05:28N 48°52' E 008°08'4 3.8
2014-Apr-23 04:32N 48°55' E 008°10'4 3.6
2014-Apr-23 03:33N 48°58' E 008°14'4 3.7
2014-Apr-23 02:33N 49°01' E 008°18'4 4.1
2014-Apr-23 01:34N 49°04' E 008°20'4 4.0
2014-Apr-23 00:33N 49°08' E 008°22'4 4.0
2014-Apr-22 23:33N 49°12' E 008°23'4 4.1
2014-Apr-22 22:33N 49°16' E 008°26'  
2014-Apr-20 08:28N 51°09' E 006°48'3 3.7
2014-Apr-20 07:33N 51°11' E 006°44'3 2.8
2014-Apr-20 06:31N 51°14' E 006°46'30 3.6
2014-Apr-19 22:15N 51°41' E 006°28'4 4.6
2014-Apr-19 21:24N 51°45' E 006°25'4 5.1
2014-Apr-19 20:33N 51°47' E 006°19'18 5.2
2014-Apr-19 17:07N 51°51' E 005°51'3 0.2
2014-Apr-19 05:32N 51°53' E 005°47'6 6.4
2014-Apr-19 04:33N 51°54' E 005°37'7 6.7
2014-Apr-19 03:33N 51°53' E 005°27'6 6.1
2014-Apr-19 02:33N 51°48' E 005°20'7 6.7
2014-Apr-19 01:32N 51°49' E 005°09'8 7.6
2014-Apr-19 00:33N 51°50' E 004°57'8 7.7
2014-Apr-18 23:33N 51°49' E 004°45'7 6.9
2014-Apr-18 22:33N 51°50' E 004°33'7 7.3
2014-Apr-18 21:33N 51°51' E 004°22'8 6.7
2014-Apr-18 20:20N 51°55' E 004°11'5 1.1
2014-Apr-18 15:27N 51°57' E 004°03'11 2.9
2014-Apr-18 11:33N 51°53' E 004°20'3 3.1
2014-Apr-18 10:33N 51°53' E 004°24'1 0.6
2014-Apr-18 09:33N 51°53' E 004°24'0 0.0
2014-Apr-18 08:33N 51°53' E 004°24'1 1.1
2014-Apr-18 07:33N 51°53' E 004°26'0 0.2
2014-Apr-18 06:33N 51°54' E 004°26'0 0.0
2014-Apr-18 05:33N 51°54' E 004°26'1 0.7
2014-Apr-18 04:33N 51°53' E 004°26'0 0.0
2014-Apr-18 03:33N 51°53' E 004°26'0 0.0
2014-Apr-18 02:33N 51°53' E 004°26'0 0.0
2014-Apr-18 01:33N 51°53' E 004°26'0 0.0
2014-Apr-18 00:33N 51°53' E 004°26'164164.0
2014-Apr-17 23:33N 51°53' E 000°00'164164.7
2014-Apr-17 22:33N 51°54' E 004°26'7 7.3
2014-Apr-17 21:33N 51°53' E 004°38'7 7.4
2014-Apr-17 20:33N 51°45' E 004°38'4 4.3
2014-Apr-17 19:33N 51°41' E 004°36'0 0.0
2014-Apr-17 18:29N 51°41' E 004°36'0 0.1
2014-Apr-17 17:33N 51°41' E 004°36'0 0.2
2014-Apr-17 16:27N 51°41' E 004°36'7 7.6
2014-Apr-17 15:34N 51°48' E 004°37'3 3.5
2014-Apr-17 14:33N 51°51' E 004°39'0 0.0
2014-Apr-17 13:33N 51°51' E 004°39'0 0.0
2014-Apr-17 12:33N 51°51' E 004°39'0 0.0
2014-Apr-17 11:33N 51°51' E 004°39'0 0.0
2014-Apr-17 10:34N 51°51' E 004°39'0 0.0
2014-Apr-17 09:30N 51°51' E 004°39'0 0.0
2014-Apr-17 08:32N 51°51' E 004°39'0 0.0
2014-Apr-17 07:33N 51°51' E 004°39'0 0.0
2014-Apr-17 06:34N 51°51' E 004°39'0 0.0
2014-Apr-17 05:33N 51°51' E 004°39'0 0.0
2014-Apr-17 04:33N 51°51' E 004°39'0 0.0
2014-Apr-17 03:33N 51°51' E 004°39'0 0.0
2014-Apr-17 02:34N 51°51' E 004°39'0 0.0
2014-Apr-17 01:33N 51°51' E 004°39'0 0.0
2014-Apr-17 00:33N 51°51' E 004°39'0 0.0
2014-Apr-16 23:33N 51°51' E 004°39'0 0.0
2014-Apr-16 22:33N 51°51' E 004°39'0 0.0
2014-Apr-16 21:33N 51°51' E 004°39'0 0.0
2014-Apr-16 20:33N 51°51' E 004°39'0 0.0
2014-Apr-16 19:33N 51°51' E 004°39'0 0.0
2014-Apr-16 18:34N 51°51' E 004°39'0 0.0
2014-Apr-16 17:33N 51°51' E 004°39'0 0.0
2014-Apr-16 16:33N 51°51' E 004°39'0 0.0
2014-Apr-16 15:33N 51°51' E 004°39'0 0.0
2014-Apr-16 14:33N 51°51' E 004°39'0 0.0
2014-Apr-16 13:33N 51°51' E 004°39'0 0.0
2014-Apr-16 12:33N 51°51' E 004°39'0 0.0
2014-Apr-16 11:33N 51°51' E 004°39'0 0.0
2014-Apr-16 10:33N 51°51' E 004°39'0 0.0
2014-Apr-16 09:33N 51°51' E 004°39'0 0.0
2014-Apr-16 08:33N 51°51' E 004°39'0 0.0
2014-Apr-16 07:33N 51°51' E 004°39'0 0.0
2014-Apr-16 06:33N 51°51' E 004°39'0 0.0
2014-Apr-16 05:33N 51°51' E 004°39'0 0.0
2014-Apr-16 04:33N 51°51' E 004°39'0 0.0
2014-Apr-16 03:33N 51°51' E 004°39'0 0.0
2014-Apr-16 02:33N 51°51' E 004°39'0 0.0
2014-Apr-16 01:33N 51°51' E 004°39'0 0.0
2014-Apr-16 00:33N 51°51' E 004°39'0 0.0
2014-Apr-15 23:33N 51°51' E 004°39'0 0.0
2014-Apr-15 22:33N 51°51' E 004°39'0 0.0
2014-Apr-15 21:33N 51°51' E 004°39'0 0.0
2014-Apr-15 20:33N 51°51' E 004°39'0 0.0
2014-Apr-15 19:33N 51°51' E 004°39'0 0.0
2014-Apr-15 18:33N 51°51' E 004°39'0 0.0
2014-Apr-15 17:33N 51°51' E 004°39'0 0.0
2014-Apr-15 16:33N 51°51' E 004°39'0 0.0
2014-Apr-15 15:33N 51°51' E 004°39'0 0.0
2014-Apr-15 14:33N 51°51' E 004°39'0 0.0
2014-Apr-15 12:34N 51°51' E 004°39'0 0.0
2014-Apr-15 11:34N 51°51' E 004°39'0 0.0
2014-Apr-15 10:34N 51°51' E 004°39'0 0.0
2014-Apr-15 09:34N 51°51' E 004°39'0 0.0
2014-Apr-15 08:34N 51°51' E 004°39'0 0.0
2014-Apr-15 07:34N 51°51' E 004°39'0 0.0
2014-Apr-15 06:34N 51°51' E 004°39'0 0.0
2014-Apr-15 05:34N 51°51' E 004°39'0 0.0
2014-Apr-15 03:34N 51°51' E 004°39'0 0.0
2014-Apr-15 02:34N 51°51' E 004°39'0 0.0
2014-Apr-15 01:34N 51°51' E 004°39'0 0.0
2014-Apr-15 00:34N 51°51' E 004°39'0 0.0
2014-Apr-14 23:33N 51°51' E 004°39'0 0.0
2014-Apr-14 22:34N 51°51' E 004°39'0 0.0
2014-Apr-14 21:34N 51°51' E 004°39'0 0.0
2014-Apr-14 20:34N 51°51' E 004°39'0 0.0
2014-Apr-14 19:34N 51°51' E 004°39'0 0.0
2014-Apr-14 18:34N 51°51' E 004°39'0 0.0
2014-Apr-14 17:34N 51°51' E 004°39'0 0.0
2014-Apr-14 16:34N 51°51' E 004°39'0 0.0
2014-Apr-14 15:34N 51°51' E 004°39'0 0.0
2014-Apr-14 14:34N 51°51' E 004°39'0 0.0
2014-Apr-14 13:34N 51°51' E 004°39'0 0.0
2014-Apr-14 11:33N 51°51' E 004°39'0 0.0
2014-Apr-14 10:34N 51°51' E 004°39'0 0.0
2014-Apr-14 09:33N 51°51' E 004°39'0 0.0
2014-Apr-14 08:33N 51°51' E 004°39'0 0.0
2014-Apr-14 07:33N 51°51' E 004°39'0 0.0
2014-Apr-14 06:33N 51°51' E 004°39'0 0.0
2014-Apr-14 05:33N 51°51' E 004°39'0 0.0
2014-Apr-13 22:33N 51°51' E 004°39'0 0.0
2014-Apr-13 21:33N 51°51' E 004°39'0 0.0
2014-Apr-13 20:33N 51°51' E 004°39'0 0.0
2014-Apr-13 19:33N 51°51' E 004°39'0 0.0
2014-Apr-13 18:33N 51°51' E 004°39'0 0.0
2014-Apr-13 17:33N 51°51' E 004°39'0 0.0
2014-Apr-13 16:33N 51°51' E 004°39'0 0.0
2014-Apr-13 15:33N 51°51' E 004°39'0 0.0
2014-Apr-13 14:33N 51°51' E 004°39'0 0.0
2014-Apr-13 13:33N 51°51' E 004°39'0 0.0
2014-Apr-13 12:33N 51°51' E 004°39'0 0.0
2014-Apr-13 11:33N 51°51' E 004°39'0 0.0
2014-Apr-13 10:33N 51°51' E 004°39'0 0.0
2014-Apr-13 09:33N 51°51' E 004°39'0 0.0
2014-Apr-13 08:33N 51°51' E 004°39'  

Dump ship's entire track history

sailing weather and tide predictions

Alsace — PB4786 — position and weather